PWSweather.com
Personal Weather Stations
Station Observations
PALMY
Palmerston NorthNZ 4410

Palmerston NorthNZ 4410

Lat: -40.349104, Lon: 175.615094

Elevation: 75.4

Station Type: WeatherDuino Pro2

http://palmyweather.co.nz

Latest ConditionsUpdated 10:50:00 PM GMT+12:12 Wednesday, Dec 12, 2018
Currently Today's Max Today's Min Today's Average
Temperature 57.7°F14.3°C 74.1°F23.4°C 57.7°F14.3°C 64.3°F17.9°C
Dew Point 53.9°F12.2°C 59.3°F15.2°C 52.0°F11.1°C 55.8°F13.2°C
Winds 1.3 mph SW2.1 kmh SW 7.6 mph -12.2 kmh - - 3.1 mph 5.0 kmh
Wind Gusts 4.9 mph7.9 kmh 19.7 mph31.7 kmh - -
Humidity 87% 95% 51% 76%
Pressure 29.93 in1013.5 mb 29.93 in1013.5 mb 29.84 in1010.5 mb -
Precipitation - 0.04 in1.0 mm - -
Hour Temp Dew Point Humidity Winds Wind Gusts Pressure Precip Precip Rate Daily Precip Total
10:50 PM 57.7°F14.3°C 53.9°F12.2°C 87% 1.3 mph SW2.1 kmh SW 4.9 mph7.9 kmh 29.93 in1013.5 mb 0.00 in0.0 mm 0.00 in0.0 mm 0.04 in1.0 mm
10:45 PM 57.9°F14.4°C 53.8°F12.1°C 86% 0.9 mph SW1.4 kmh SW 2.2 mph3.5 kmh 29.93 in1013.5 mb 0.00 in0.0 mm 0.00 in0.0 mm 0.04 in1.0 mm
10:40 PM 58.2°F14.6°C 54.1°F12.3°C 86% Calm Calm 1.8 mph2.9 kmh 29.92 in1013.2 mb 0.00 in0.0 mm 0.00 in0.0 mm 0.04 in1.0 mm
10:35 PM 58.4°F14.7°C 53.6°F12.0°C 84% Calm Calm 0.9 mph1.4 kmh 29.93 in1013.5 mb 0.00 in0.0 mm 0.00 in0.0 mm 0.04 in1.0 mm
10:30 PM 58.8°F14.9°C 54.0°F12.2°C 84% 0.4 mph SW0.6 kmh SW 1.3 mph2.1 kmh 29.93 in1013.5 mb 0.00 in0.0 mm 0.00 in0.0 mm 0.04 in1.0 mm
10:25 PM 59.0°F15.0°C 54.2°F12.3°C 84% 0.9 mph SW1.4 kmh SW 2.7 mph4.3 kmh 29.93 in1013.5 mb 0.00 in0.0 mm 0.00 in0.0 mm 0.04 in1.0 mm
10:20 PM 59.1°F15.1°C 54.0°F12.2°C 83% 1.8 mph SW2.9 kmh SW 3.1 mph5.0 kmh 29.93 in1013.5 mb 0.00 in0.0 mm 0.00 in0.0 mm 0.04 in1.0 mm
10:15 PM 59.3°F15.2°C 54.2°F12.3°C 83% 1.8 mph SW2.9 kmh SW 3.6 mph5.8 kmh 29.93 in1013.5 mb 0.00 in0.0 mm 0.00 in0.0 mm 0.04 in1.0 mm
10:10 PM 59.5°F15.3°C 54.4°F12.4°C 83% 1.3 mph WSW2.1 kmh WSW 3.6 mph5.8 kmh 29.93 in1013.5 mb 0.00 in0.0 mm 0.00 in0.0 mm 0.04 in1.0 mm
10:05 PM 59.7°F15.4°C 54.2°F12.3°C 82% 1.3 mph WSW2.1 kmh WSW 3.1 mph5.0 kmh 29.93 in1013.5 mb 0.00 in0.0 mm 0.00 in0.0 mm 0.04 in1.0 mm
10:00 PM 59.7°F15.4°C 54.2°F12.3°C 82% 1.3 mph WSW2.1 kmh WSW 2.7 mph4.3 kmh 29.93 in1013.5 mb 0.00 in0.0 mm 0.00 in0.0 mm 0.04 in1.0 mm
09:55 PM 59.9°F15.5°C 54.1°F12.3°C 81% 1.8 mph W2.9 kmh W 3.1 mph5.0 kmh 29.93 in1013.5 mb 0.00 in0.0 mm 0.00 in0.0 mm 0.04 in1.0 mm
09:50 PM 60.0°F15.6°C 54.2°F12.3°C 81% 2.2 mph W3.5 kmh W 4.5 mph7.2 kmh 29.93 in1013.5 mb 0.00 in0.0 mm 0.00 in0.0 mm 0.04 in1.0 mm
09:45 PM 60.0°F15.6°C 54.2°F12.3°C 81% 1.3 mph W2.1 kmh W 4.5 mph7.2 kmh 29.93 in1013.5 mb 0.00 in0.0 mm 0.00 in0.0 mm 0.04 in1.0 mm
09:40 PM 60.2°F15.7°C 54.0°F12.2°C 80% 1.3 mph WSW2.1 kmh WSW 3.6 mph5.8 kmh 29.93 in1013.5 mb 0.00 in0.0 mm 0.00 in0.0 mm 0.04 in1.0 mm
09:35 PM 60.2°F15.7°C 54.0°F12.2°C 80% 1.3 mph WSW2.1 kmh WSW 3.6 mph5.8 kmh 29.93 in1013.5 mb 0.00 in0.0 mm 0.00 in0.0 mm 0.04 in1.0 mm
09:30 PM 60.2°F15.7°C 54.0°F12.2°C 80% 0.9 mph WSW1.4 kmh WSW 2.2 mph3.5 kmh 29.93 in1013.5 mb 0.00 in0.0 mm 0.00 in0.0 mm 0.04 in1.0 mm
09:25 PM 60.0°F15.6°C 53.8°F12.1°C 80% 0.9 mph W1.4 kmh W 2.7 mph4.3 kmh 29.93 in1013.5 mb 0.00 in0.0 mm 0.00 in0.0 mm 0.04 in1.0 mm
09:20 PM 60.2°F15.7°C 54.0°F12.2°C 80% 1.3 mph W2.1 kmh W 5.4 mph8.7 kmh 29.92 in1013.2 mb 0.00 in0.0 mm 0.00 in0.0 mm 0.04 in1.0 mm
09:15 PM 60.2°F15.7°C 54.0°F12.2°C 80% 1.8 mph W2.9 kmh W 5.4 mph8.7 kmh 29.92 in1013.2 mb 0.00 in0.0 mm 0.00 in0.0 mm 0.04 in1.0 mm
09:10 PM 60.4°F15.8°C 53.9°F12.2°C 79% 1.8 mph WSW2.9 kmh WSW 3.6 mph5.8 kmh 29.92 in1013.2 mb 0.00 in0.0 mm 0.00 in0.0 mm 0.04 in1.0 mm
09:05 PM 60.6°F15.9°C 54.1°F12.3°C 79% 1.3 mph WSW2.1 kmh WSW 3.6 mph5.8 kmh 29.92 in1013.2 mb 0.00 in0.0 mm 0.00 in0.0 mm 0.04 in1.0 mm
09:00 PM 60.6°F15.9°C 53.7°F12.1°C 78% 1.3 mph WSW2.1 kmh WSW 3.6 mph5.8 kmh 29.92 in1013.2 mb 0.00 in0.0 mm 0.00 in0.0 mm 0.04 in1.0 mm
08:55 PM 60.8°F16.0°C 53.6°F12.0°C 77% 1.8 mph WSW2.9 kmh WSW 4.0 mph6.4 kmh 29.92 in1013.2 mb 0.00 in0.0 mm 0.00 in0.0 mm 0.04 in1.0 mm
08:50 PM 60.9°F16.1°C 53.3°F11.8°C 76% 1.8 mph WSW2.9 kmh WSW 4.9 mph7.9 kmh 29.92 in1013.2 mb 0.00 in0.0 mm 0.00 in0.0 mm 0.04 in1.0 mm
08:45 PM 60.9°F16.1°C 53.3°F11.8°C 76% 2.2 mph WSW3.5 kmh WSW 6.7 mph10.8 kmh 29.91 in1012.9 mb 0.00 in0.0 mm 0.00 in0.0 mm 0.04 in1.0 mm
08:40 PM 61.1°F16.2°C 53.2°F11.8°C 75% 1.8 mph WSW2.9 kmh WSW 6.7 mph10.8 kmh 29.91 in1012.9 mb 0.00 in0.0 mm 0.00 in0.0 mm 0.04 in1.0 mm
08:35 PM 61.3°F16.3°C 53.0°F11.7°C 74% 1.3 mph WSW2.1 kmh WSW 3.6 mph5.8 kmh 29.91 in1012.9 mb 0.00 in0.0 mm 0.00 in0.0 mm 0.04 in1.0 mm
08:30 PM 61.5°F16.4°C 53.2°F11.8°C 74% 1.3 mph WSW2.1 kmh WSW 3.6 mph5.8 kmh 29.91 in1012.9 mb 0.00 in0.0 mm 0.00 in0.0 mm 0.04 in1.0 mm
08:25 PM 61.7°F16.5°C 53.0°F11.7°C 73% 1.8 mph W2.9 kmh W 0.9 mph1.4 kmh 29.91 in1012.9 mb 0.00 in0.0 mm 0.00 in0.0 mm 0.04 in1.0 mm
08:20 PM 61.8°F16.6°C 52.7°F11.5°C 72% 1.8 mph WSW2.9 kmh WSW 1.0 mph1.6 kmh 29.91 in1012.9 mb 0.00 in0.0 mm 0.00 in0.0 mm 0.04 in1.0 mm
08:15 PM 62.2°F16.8°C 53.1°F11.7°C 72% 1.8 mph SW2.9 kmh SW 1.0 mph1.6 kmh 29.90 in1012.5 mb 0.00 in0.0 mm 0.00 in0.0 mm 0.04 in1.0 mm
08:10 PM 62.2°F16.8°C 52.7°F11.5°C 71% 2.2 mph SW3.5 kmh SW 4.9 mph7.9 kmh 29.90 in1012.5 mb 0.00 in0.0 mm 0.00 in0.0 mm 0.04 in1.0 mm
08:05 PM 62.4°F16.9°C 52.9°F11.6°C 71% 2.2 mph WSW3.5 kmh WSW 4.9 mph7.9 kmh 29.90 in1012.5 mb 0.00 in0.0 mm 0.00 in0.0 mm 0.04 in1.0 mm
08:00 PM 62.6°F17.0°C 52.7°F11.5°C 70% 2.7 mph WSW4.3 kmh WSW 7.2 mph11.6 kmh 29.89 in1012.2 mb 0.00 in0.0 mm 0.00 in0.0 mm 0.04 in1.0 mm
07:55 PM 62.7°F17.1°C 52.4°F11.3°C 69% 2.7 mph SW4.3 kmh SW 7.2 mph11.6 kmh 29.89 in1012.2 mb 0.00 in0.0 mm 0.00 in0.0 mm 0.04 in1.0 mm
07:50 PM 63.1°F17.3°C 52.4°F11.3°C 68% 2.2 mph SW3.5 kmh SW 6.3 mph10.1 kmh 29.89 in1012.2 mb 0.00 in0.0 mm 0.00 in0.0 mm 0.04 in1.0 mm
07:45 PM 63.3°F17.4°C 52.6°F11.4°C 68% 2.7 mph SW4.3 kmh SW 6.3 mph10.1 kmh 29.89 in1012.2 mb 0.00 in0.0 mm 0.00 in0.0 mm 0.04 in1.0 mm
07:40 PM 63.5°F17.5°C 52.8°F11.6°C 68% 3.1 mph SW5.0 kmh SW 5.8 mph9.3 kmh 29.89 in1012.2 mb 0.00 in0.0 mm 0.00 in0.0 mm 0.04 in1.0 mm
07:35 PM 63.6°F17.6°C 52.5°F11.4°C 67% 3.1 mph SW5.0 kmh SW 6.7 mph10.8 kmh 29.89 in1012.2 mb 0.00 in0.0 mm 0.00 in0.0 mm 0.04 in1.0 mm
07:30 PM 63.8°F17.7°C 52.3°F11.3°C 66% 3.1 mph SW5.0 kmh SW 6.7 mph10.8 kmh 29.89 in1012.2 mb 0.00 in0.0 mm 0.00 in0.0 mm 0.04 in1.0 mm
07:25 PM 64.2°F17.9°C 52.6°F11.4°C 66% 3.6 mph SW5.8 kmh SW 6.7 mph10.8 kmh 29.89 in1012.2 mb 0.00 in0.0 mm 0.00 in0.0 mm 0.04 in1.0 mm
07:20 PM 64.4°F18.0°C 52.4°F11.3°C 65% 3.6 mph SW5.8 kmh SW 5.8 mph9.3 kmh 29.89 in1012.2 mb 0.00 in0.0 mm 0.00 in0.0 mm 0.04 in1.0 mm
07:15 PM 64.5°F18.1°C 52.5°F11.4°C 65% 3.6 mph SW5.8 kmh SW 8.1 mph13.0 kmh 29.88 in1011.9 mb 0.00 in0.0 mm 0.00 in0.0 mm 0.04 in1.0 mm
07:10 PM 64.7°F18.2°C 52.7°F11.5°C 65% 4.0 mph SW6.4 kmh SW 11.6 mph18.7 kmh 29.88 in1011.9 mb 0.00 in0.0 mm 0.00 in0.0 mm 0.04 in1.0 mm
07:05 PM 64.9°F18.3°C 52.5°F11.4°C 64% 4.0 mph SW6.4 kmh SW 11.6 mph18.7 kmh 29.88 in1011.9 mb 0.00 in0.0 mm 0.00 in0.0 mm 0.04 in1.0 mm
07:00 PM 65.8°F18.8°C 53.3°F11.8°C 64% 3.6 mph SW5.8 kmh SW 8.5 mph13.7 kmh 29.88 in1011.9 mb 0.00 in0.0 mm 0.00 in0.0 mm 0.04 in1.0 mm
06:55 PM 65.8°F18.8°C 53.3°F11.8°C 64% 3.1 mph WSW5.0 kmh WSW 8.1 mph13.0 kmh 29.88 in1011.9 mb 0.00 in0.0 mm 0.00 in0.0 mm 0.04 in1.0 mm
06:50 PM 66.0°F18.9°C 53.1°F11.7°C 63% 3.6 mph WSW5.8 kmh WSW 8.5 mph13.7 kmh 29.87 in1011.5 mb 0.00 in0.0 mm 0.00 in0.0 mm 0.04 in1.0 mm
06:45 PM 66.5°F19.2°C 53.1°F11.7°C 62% 4.0 mph WSW6.4 kmh WSW 9.4 mph15.1 kmh 29.87 in1011.5 mb 0.00 in0.0 mm 0.00 in0.0 mm 0.04 in1.0 mm
06:40 PM 66.9°F19.4°C 53.0°F11.7°C 61% 4.0 mph WSW6.4 kmh WSW 10.3 mph16.6 kmh 29.87 in1011.5 mb 0.00 in0.0 mm 0.00 in0.0 mm 0.04 in1.0 mm
06:35 PM 67.2°F19.6°C 52.9°F11.6°C 60% 4.5 mph WSW7.2 kmh WSW 10.3 mph16.6 kmh 29.87 in1011.5 mb 0.00 in0.0 mm 0.00 in0.0 mm 0.04 in1.0 mm
06:30 PM 67.4°F19.7°C 52.6°F11.4°C 59% 4.5 mph WSW7.2 kmh WSW 10.3 mph16.6 kmh 29.87 in1011.5 mb 0.00 in0.0 mm 0.00 in0.0 mm 0.04 in1.0 mm
06:25 PM 67.2°F19.6°C 52.0°F11.1°C 58% 4.9 mph W7.9 kmh W 10.3 mph16.6 kmh 29.87 in1011.5 mb 0.00 in0.0 mm 0.00 in0.0 mm 0.04 in1.0 mm
06:20 PM 68.1°F20.1°C 52.3°F11.3°C 57% 5.4 mph W8.7 kmh W 11.6 mph18.7 kmh 29.86 in1011.2 mb 0.00 in0.0 mm 0.00 in0.0 mm 0.04 in1.0 mm
06:15 PM 68.5°F20.3°C 52.7°F11.5°C 57% 5.4 mph W8.7 kmh W 13.4 mph21.6 kmh 29.86 in1011.2 mb 0.00 in0.0 mm 0.00 in0.0 mm 0.04 in1.0 mm
06:10 PM 68.9°F20.5°C 53.1°F11.7°C 57% 4.9 mph W7.9 kmh W 13.4 mph21.6 kmh 29.86 in1011.2 mb 0.00 in0.0 mm 0.00 in0.0 mm 0.04 in1.0 mm
06:05 PM 69.2°F20.7°C 53.4°F11.9°C 57% 5.8 mph WSW9.3 kmh WSW 13.0 mph20.9 kmh 29.86 in1011.2 mb 0.00 in0.0 mm 0.00 in0.0 mm 0.04 in1.0 mm
06:00 PM 69.9°F21.1°C 53.5°F11.9°C 56% 5.8 mph WSW9.3 kmh WSW 13.0 mph20.9 kmh 29.86 in1011.2 mb 0.00 in0.0 mm 0.00 in0.0 mm 0.04 in1.0 mm
05:55 PM 70.7°F21.5°C 53.8°F12.1°C 55% 4.9 mph WSW7.9 kmh WSW 11.2 mph18.0 kmh 29.86 in1011.2 mb 0.00 in0.0 mm 0.00 in0.0 mm 0.04 in1.0 mm
05:50 PM 70.3°F21.3°C 53.4°F11.9°C 55% 4.9 mph WSW7.9 kmh WSW 18.8 mph30.3 kmh 29.86 in1011.2 mb 0.00 in0.0 mm 0.00 in0.0 mm 0.04 in1.0 mm
05:45 PM 70.5°F21.4°C 54.1°F12.3°C 56% 5.4 mph WSW8.7 kmh WSW 18.8 mph30.3 kmh 29.86 in1011.2 mb 0.00 in0.0 mm 0.00 in0.0 mm 0.04 in1.0 mm
05:40 PM 69.8°F21.0°C 53.4°F11.9°C 56% 5.4 mph SW8.7 kmh SW 12.1 mph19.5 kmh 29.86 in1011.2 mb 0.00 in0.0 mm 0.00 in0.0 mm 0.04 in1.0 mm
05:35 PM 69.8°F21.0°C 53.9°F12.2°C 57% 5.8 mph SW9.3 kmh SW 12.1 mph19.5 kmh 29.85 in1010.8 mb 0.00 in0.0 mm 0.00 in0.0 mm 0.04 in1.0 mm
05:30 PM 69.6°F20.9°C 53.2°F11.8°C 56% 5.4 mph SW8.7 kmh SW 10.8 mph17.4 kmh 29.85 in1010.8 mb 0.00 in0.0 mm 0.00 in0.0 mm 0.04 in1.0 mm
05:25 PM 69.8°F21.0°C 53.4°F11.9°C 56% 5.8 mph SW9.3 kmh SW 14.3 mph23.0 kmh 29.85 in1010.8 mb 0.00 in0.0 mm 0.00 in0.0 mm 0.04 in1.0 mm
05:20 PM 69.2°F20.7°C 52.9°F11.6°C 56% 6.3 mph SW10.1 kmh SW 14.3 mph23.0 kmh 29.85 in1010.8 mb 0.00 in0.0 mm 0.00 in0.0 mm 0.04 in1.0 mm
05:15 PM 70.3°F21.3°C 53.9°F12.2°C 56% 5.8 mph SW9.3 kmh SW 13.0 mph20.9 kmh 29.85 in1010.8 mb 0.00 in0.0 mm 0.00 in0.0 mm 0.04 in1.0 mm
05:10 PM 70.3°F21.3°C 53.9°F12.2°C 56% 5.8 mph SW9.3 kmh SW 13.0 mph20.9 kmh 29.85 in1010.8 mb 0.00 in0.0 mm 0.00 in0.0 mm 0.04 in1.0 mm
05:05 PM 70.7°F21.5°C 54.3°F12.4°C 56% 6.3 mph SW10.1 kmh SW 17.9 mph28.8 kmh 29.85 in1010.8 mb 0.00 in0.0 mm 0.00 in0.0 mm 0.04 in1.0 mm
05:00 PM 69.8°F21.0°C 53.4°F11.9°C 56% 6.7 mph SW10.8 kmh SW 17.9 mph28.8 kmh 29.84 in1010.5 mb 0.00 in0.0 mm 0.00 in0.0 mm 0.04 in1.0 mm
04:55 PM 70.3°F21.3°C 53.9°F12.2°C 56% 6.3 mph SW10.1 kmh SW 14.8 mph23.8 kmh 29.84 in1010.5 mb 0.00 in0.0 mm 0.00 in0.0 mm 0.04 in1.0 mm
04:50 PM 70.5°F21.4°C 54.1°F12.3°C 56% 6.3 mph WSW10.1 kmh WSW 14.3 mph23.0 kmh 29.84 in1010.5 mb 0.00 in0.0 mm 0.00 in0.0 mm 0.04 in1.0 mm
04:45 PM 71.6°F22.0°C 54.6°F12.6°C 55% 5.8 mph WSW9.3 kmh WSW 12.5 mph20.1 kmh 29.85 in1010.8 mb 0.00 in0.0 mm 0.00 in0.0 mm 0.04 in1.0 mm
04:40 PM 71.6°F22.0°C 54.6°F12.6°C 55% 5.8 mph WSW9.3 kmh WSW 13.0 mph20.9 kmh 29.84 in1010.5 mb 0.00 in0.0 mm 0.00 in0.0 mm 0.04 in1.0 mm
04:35 PM 71.2°F21.8°C 54.2°F12.3°C 55% 6.7 mph SW10.8 kmh SW 15.2 mph24.5 kmh 29.85 in1010.8 mb 0.00 in0.0 mm 0.00 in0.0 mm 0.04 in1.0 mm
04:30 PM 70.7°F21.5°C 54.3°F12.4°C 56% 6.7 mph SW10.8 kmh SW 15.2 mph24.5 kmh 29.85 in1010.8 mb 0.00 in0.0 mm 0.00 in0.0 mm 0.04 in1.0 mm
04:25 PM 71.6°F22.0°C 54.1°F12.3°C 54% 5.8 mph SW9.3 kmh SW 13.9 mph22.4 kmh 29.84 in1010.5 mb 0.00 in0.0 mm 0.00 in0.0 mm 0.04 in1.0 mm
04:20 PM 71.0°F21.7°C 54.1°F12.3°C 55% 5.4 mph SW8.7 kmh SW 14.8 mph23.8 kmh 29.84 in1010.5 mb 0.00 in0.0 mm 0.00 in0.0 mm 0.04 in1.0 mm
04:15 PM 72.5°F22.5°C 54.4°F12.4°C 53% 6.7 mph SW10.8 kmh SW 14.8 mph23.8 kmh 29.84 in1010.5 mb 0.00 in0.0 mm 0.00 in0.0 mm 0.04 in1.0 mm
04:10 PM 71.6°F22.0°C 54.6°F12.6°C 55% 7.6 mph SW12.2 kmh SW 15.2 mph24.5 kmh 29.84 in1010.5 mb 0.00 in0.0 mm 0.00 in0.0 mm 0.04 in1.0 mm
04:05 PM 71.7°F22.1°C 54.7°F12.6°C 55% 6.7 mph SW10.8 kmh SW 15.2 mph24.5 kmh 29.84 in1010.5 mb 0.00 in0.0 mm 0.00 in0.0 mm 0.04 in1.0 mm
04:00 PM 71.9°F22.2°C 54.4°F12.4°C 54% 5.8 mph SW9.3 kmh SW 14.3 mph23.0 kmh 29.84 in1010.5 mb 0.00 in0.0 mm 0.00 in0.0 mm 0.04 in1.0 mm
03:55 PM 71.7°F22.1°C 54.2°F12.3°C 54% 5.8 mph SW9.3 kmh SW 14.3 mph23.0 kmh 29.85 in1010.8 mb 0.00 in0.0 mm 0.00 in0.0 mm 0.04 in1.0 mm
03:50 PM 71.7°F22.1°C 54.2°F12.3°C 54% 5.8 mph SW9.3 kmh SW 13.0 mph20.9 kmh 29.84 in1010.5 mb 0.00 in0.0 mm 0.00 in0.0 mm 0.04 in1.0 mm
03:45 PM 73.0°F22.8°C 54.4°F12.4°C 52% 6.3 mph SW10.1 kmh SW 14.3 mph23.0 kmh 29.84 in1010.5 mb 0.00 in0.0 mm 0.00 in0.0 mm 0.04 in1.0 mm
03:40 PM 72.1°F22.3°C 54.6°F12.6°C 54% 6.7 mph SW10.8 kmh SW 14.3 mph23.0 kmh 29.85 in1010.8 mb 0.00 in0.0 mm 0.00 in0.0 mm 0.04 in1.0 mm
03:35 PM 72.1°F22.3°C 54.6°F12.6°C 54% 4.9 mph SW7.9 kmh SW 15.7 mph25.3 kmh 29.85 in1010.8 mb 0.00 in0.0 mm 0.00 in0.0 mm 0.04 in1.0 mm
03:30 PM 72.1°F22.3°C 54.1°F12.3°C 53% 4.9 mph SW7.9 kmh SW 15.7 mph25.3 kmh 29.85 in1010.8 mb 0.00 in0.0 mm 0.00 in0.0 mm 0.04 in1.0 mm
03:25 PM 71.7°F22.1°C 54.2°F12.3°C 54% 6.3 mph SW10.1 kmh SW 17.5 mph28.2 kmh 29.85 in1010.8 mb 0.00 in0.0 mm 0.00 in0.0 mm 0.04 in1.0 mm
03:20 PM 72.1°F22.3°C 53.5°F11.9°C 52% 6.3 mph SW10.1 kmh SW 17.5 mph28.2 kmh 29.84 in1010.5 mb 0.00 in0.0 mm 0.00 in0.0 mm 0.04 in1.0 mm
03:15 PM 72.5°F22.5°C 54.9°F12.7°C 54% 5.8 mph SW9.3 kmh SW 13.0 mph20.9 kmh 29.85 in1010.8 mb 0.00 in0.0 mm 0.00 in0.0 mm 0.04 in1.0 mm
03:10 PM 71.2°F21.8°C 53.7°F12.1°C 54% 5.4 mph SW8.7 kmh SW 13.0 mph20.9 kmh 29.85 in1010.8 mb 0.00 in0.0 mm 0.00 in0.0 mm 0.04 in1.0 mm
03:05 PM 73.0°F22.8°C 54.4°F12.4°C 52% 5.4 mph SW8.7 kmh SW 13.0 mph20.9 kmh 29.84 in1010.5 mb 0.00 in0.0 mm 0.00 in0.0 mm 0.04 in1.0 mm
03:00 PM 71.7°F22.1°C 54.2°F12.3°C 54% 6.3 mph SW10.1 kmh SW 13.9 mph22.4 kmh 29.84 in1010.5 mb 0.00 in0.0 mm 0.00 in0.0 mm 0.04 in1.0 mm
02:55 PM 71.7°F22.1°C 53.7°F12.1°C 53% 6.3 mph SW10.1 kmh SW 14.3 mph23.0 kmh 29.84 in1010.5 mb 0.00 in0.0 mm 0.00 in0.0 mm 0.04 in1.0 mm
02:50 PM 72.6°F22.6°C 55.0°F12.8°C 54% 6.7 mph SW10.8 kmh SW 14.8 mph23.8 kmh 29.84 in1010.5 mb 0.00 in0.0 mm 0.00 in0.0 mm 0.04 in1.0 mm
02:45 PM 71.7°F22.1°C 54.7°F12.6°C 55% 6.7 mph WSW10.8 kmh WSW 15.2 mph24.5 kmh 29.84 in1010.5 mb 0.00 in0.0 mm 0.00 in0.0 mm 0.04 in1.0 mm
02:40 PM 73.5°F23.1°C 54.3°F12.4°C 51% 5.4 mph WSW8.7 kmh WSW 15.2 mph24.5 kmh 29.85 in1010.8 mb 0.00 in0.0 mm 0.00 in0.0 mm 0.04 in1.0 mm
02:35 PM 72.6°F22.6°C 53.5°F11.9°C 51% 5.8 mph SW9.3 kmh SW 13.4 mph21.6 kmh 29.84 in1010.5 mb 0.00 in0.0 mm 0.00 in0.0 mm 0.04 in1.0 mm
02:30 PM 72.5°F22.5°C 53.4°F11.9°C 51% 6.7 mph SW10.8 kmh SW 13.4 mph21.6 kmh 29.84 in1010.5 mb 0.00 in0.0 mm 0.00 in0.0 mm 0.04 in1.0 mm
02:25 PM 72.1°F22.3°C 53.5°F11.9°C 52% 6.7 mph SW10.8 kmh SW 14.3 mph23.0 kmh 29.84 in1010.5 mb 0.00 in0.0 mm 0.00 in0.0 mm 0.04 in1.0 mm
02:20 PM 72.5°F22.5°C 54.4°F12.4°C 53% 6.3 mph SW10.1 kmh SW 14.8 mph23.8 kmh 29.85 in1010.8 mb 0.00 in0.0 mm 0.00 in0.0 mm 0.04 in1.0 mm
02:15 PM 72.5°F22.5°C 53.4°F11.9°C 51% 6.3 mph SW10.1 kmh SW 15.7 mph25.3 kmh 29.85 in1010.8 mb 0.00 in0.0 mm 0.00 in0.0 mm 0.04 in1.0 mm
02:10 PM 72.3°F22.4°C 54.2°F12.3°C 53% 6.3 mph SW10.1 kmh SW 15.7 mph25.3 kmh 29.85 in1010.8 mb 0.00 in0.0 mm 0.00 in0.0 mm 0.04 in1.0 mm
02:05 PM 72.6°F22.6°C 54.5°F12.5°C 53% 6.7 mph SW10.8 kmh SW 16.6 mph26.7 kmh 29.85 in1010.8 mb 0.00 in0.0 mm 0.00 in0.0 mm 0.04 in1.0 mm
02:00 PM 72.3°F22.4°C 54.2°F12.3°C 53% 7.2 mph SW11.6 kmh SW 19.7 mph31.7 kmh 29.85 in1010.8 mb 0.00 in0.0 mm 0.00 in0.0 mm 0.04 in1.0 mm
01:55 PM 71.9°F22.2°C 54.4°F12.4°C 54% 6.7 mph SW10.8 kmh SW 19.7 mph31.7 kmh 29.85 in1010.8 mb 0.00 in0.0 mm 0.00 in0.0 mm 0.04 in1.0 mm
01:50 PM 70.1°F21.2°C 53.2°F11.8°C 55% 6.7 mph SW10.8 kmh SW 15.2 mph24.5 kmh 29.85 in1010.8 mb 0.00 in0.0 mm 0.00 in0.0 mm 0.04 in1.0 mm
01:45 PM 70.7°F21.5°C 53.8°F12.1°C 55% 7.2 mph SW11.6 kmh SW 18.4 mph29.6 kmh 29.85 in1010.8 mb 0.00 in0.0 mm 0.00 in0.0 mm 0.04 in1.0 mm
01:40 PM 71.0°F21.7°C 53.6°F12.0°C 54% 6.3 mph SW10.1 kmh SW 18.4 mph29.6 kmh 29.85 in1010.8 mb 0.00 in0.0 mm 0.00 in0.0 mm 0.04 in1.0 mm
01:35 PM 71.4°F21.9°C 53.9°F12.2°C 54% 5.8 mph SW9.3 kmh SW 13.9 mph22.4 kmh 29.85 in1010.8 mb 0.00 in0.0 mm 0.00 in0.0 mm 0.04 in1.0 mm
01:30 PM 71.0°F21.7°C 53.6°F12.0°C 54% 6.7 mph SW10.8 kmh SW 13.9 mph22.4 kmh 29.85 in1010.8 mb 0.00 in0.0 mm 0.00 in0.0 mm 0.04 in1.0 mm
01:25 PM 73.2°F22.9°C 54.0°F12.2°C 51% 5.4 mph SW8.7 kmh SW 13.9 mph22.4 kmh 29.85 in1010.8 mb 0.00 in0.0 mm 0.00 in0.0 mm 0.04 in1.0 mm
01:20 PM 73.0°F22.8°C 54.9°F12.7°C 53% 5.8 mph SW9.3 kmh SW 15.2 mph24.5 kmh 29.85 in1010.8 mb 0.00 in0.0 mm 0.00 in0.0 mm 0.04 in1.0 mm
01:15 PM 72.1°F22.3°C 54.6°F12.6°C 54% 5.8 mph SW9.3 kmh SW 15.2 mph24.5 kmh 29.85 in1010.8 mb 0.00 in0.0 mm 0.00 in0.0 mm 0.04 in1.0 mm
01:10 PM 74.1°F23.4°C 54.9°F12.7°C 51% 4.5 mph SW7.2 kmh SW 13.4 mph21.6 kmh 29.85 in1010.8 mb 0.00 in0.0 mm 0.00 in0.0 mm 0.04 in1.0 mm
01:05 PM 73.2°F22.9°C 55.1°F12.8°C 53% 4.5 mph WSW7.2 kmh WSW 11.6 mph18.7 kmh 29.85 in1010.8 mb 0.00 in0.0 mm 0.00 in0.0 mm 0.04 in1.0 mm
01:00 PM 73.2°F22.9°C 55.6°F13.1°C 54% 4.0 mph SW6.4 kmh SW 9.9 mph15.9 kmh 29.85 in1010.8 mb 0.00 in0.0 mm 0.00 in0.0 mm 0.04 in1.0 mm
12:55 PM 70.7°F21.5°C 55.2°F12.9°C 58% 4.5 mph SW7.2 kmh SW 9.9 mph15.9 kmh 29.85 in1010.8 mb 0.00 in0.0 mm 0.00 in0.0 mm 0.04 in1.0 mm
12:50 PM 71.9°F22.2°C 54.9°F12.7°C 55% 6.3 mph SW10.1 kmh SW 18.4 mph29.6 kmh 29.86 in1011.2 mb 0.00 in0.0 mm 0.00 in0.0 mm 0.04 in1.0 mm
12:45 PM 71.7°F22.1°C 55.7°F13.2°C 57% 5.8 mph SW9.3 kmh SW 18.4 mph29.6 kmh 29.86 in1011.2 mb 0.00 in0.0 mm 0.00 in0.0 mm 0.04 in1.0 mm
12:40 PM 73.7°F23.2°C 56.6°F13.7°C 55% 4.0 mph WSW6.4 kmh WSW 11.2 mph18.0 kmh 29.86 in1011.2 mb 0.00 in0.0 mm 0.00 in0.0 mm 0.04 in1.0 mm
12:35 PM 73.5°F23.1°C 55.4°F13.0°C 53% 4.0 mph WSW6.4 kmh WSW 11.2 mph18.0 kmh 29.86 in1011.2 mb 0.00 in0.0 mm 0.00 in0.0 mm 0.04 in1.0 mm
12:30 PM 73.0°F22.8°C 54.4°F12.4°C 52% 4.0 mph WSW6.4 kmh WSW 10.3 mph16.6 kmh 29.86 in1011.2 mb 0.00 in0.0 mm 0.00 in0.0 mm 0.04 in1.0 mm
12:25 PM 72.1°F22.3°C 55.6°F13.1°C 56% 3.6 mph WSW5.8 kmh WSW 9.0 mph14.5 kmh 29.86 in1011.2 mb 0.00 in0.0 mm 0.00 in0.0 mm 0.04 in1.0 mm
12:20 PM 71.4°F21.9°C 56.4°F13.6°C 59% 4.0 mph SW6.4 kmh SW 12.1 mph19.5 kmh 29.86 in1011.2 mb 0.00 in0.0 mm 0.00 in0.0 mm 0.04 in1.0 mm
12:15 PM 70.1°F21.2°C 55.1°F12.8°C 59% 4.9 mph SW7.9 kmh SW 13.9 mph22.4 kmh 29.86 in1011.2 mb 0.00 in0.0 mm 0.00 in0.0 mm 0.04 in1.0 mm
12:10 PM 71.2°F21.8°C 56.2°F13.4°C 59% 4.9 mph SW7.9 kmh SW 13.9 mph22.4 kmh 29.86 in1011.2 mb 0.00 in0.0 mm 0.00 in0.0 mm 0.04 in1.0 mm
12:05 PM 70.7°F21.5°C 55.2°F12.9°C 58% 4.5 mph SW7.2 kmh SW 9.9 mph15.9 kmh 29.86 in1011.2 mb 0.00 in0.0 mm 0.00 in0.0 mm 0.04 in1.0 mm
12:00 PM 72.6°F22.6°C 56.5°F13.6°C 57% 3.6 mph SW5.8 kmh SW 11.2 mph18.0 kmh 29.87 in1011.5 mb 0.00 in0.0 mm 0.00 in0.0 mm 0.04 in1.0 mm
11:55 AM 72.6°F22.6°C 57.5°F14.2°C 59% 4.0 mph SW6.4 kmh SW 11.2 mph18.0 kmh 29.87 in1011.5 mb 0.00 in0.0 mm 0.00 in0.0 mm 0.04 in1.0 mm
11:50 AM 71.4°F21.9°C 55.9°F13.3°C 58% 4.0 mph WSW6.4 kmh WSW 10.3 mph16.6 kmh 29.87 in1011.5 mb 0.00 in0.0 mm 0.00 in0.0 mm 0.04 in1.0 mm
11:45 AM 73.0°F22.8°C 58.8°F14.9°C 61% 3.6 mph WNW5.8 kmh WNW 10.3 mph16.6 kmh 29.87 in1011.5 mb 0.00 in0.0 mm 0.00 in0.0 mm 0.04 in1.0 mm
11:40 AM 70.8°F21.6°C 57.2°F14.0°C 62% 4.5 mph W7.2 kmh W 9.4 mph15.1 kmh 29.87 in1011.5 mb 0.00 in0.0 mm 0.00 in0.0 mm 0.04 in1.0 mm
11:35 AM 70.7°F21.5°C 56.2°F13.4°C 60% 4.5 mph W7.2 kmh W 10.3 mph16.6 kmh 29.87 in1011.5 mb 0.00 in0.0 mm 0.00 in0.0 mm 0.04 in1.0 mm
11:30 AM 69.2°F20.7°C 56.5°F13.6°C 64% 3.6 mph WSW5.8 kmh WSW 10.3 mph16.6 kmh 29.88 in1011.9 mb 0.00 in0.0 mm 0.00 in0.0 mm 0.04 in1.0 mm
11:25 AM 69.0°F20.6°C 55.0°F12.8°C 61% 3.1 mph WSW5.0 kmh WSW 8.1 mph13.0 kmh 29.87 in1011.5 mb 0.00 in0.0 mm 0.00 in0.0 mm 0.04 in1.0 mm
11:20 AM 71.0°F21.7°C 56.5°F13.6°C 60% 3.6 mph W5.8 kmh W 11.2 mph18.0 kmh 29.88 in1011.9 mb 0.00 in0.0 mm 0.00 in0.0 mm 0.04 in1.0 mm
11:15 AM 70.5°F21.4°C 57.8°F14.3°C 64% 3.6 mph WSW5.8 kmh WSW 11.2 mph18.0 kmh 29.87 in1011.5 mb 0.00 in0.0 mm 0.00 in0.0 mm 0.04 in1.0 mm
11:10 AM 70.5°F21.4°C 55.0°F12.8°C 58% 2.7 mph SW4.3 kmh SW 9.4 mph15.1 kmh 29.88 in1011.9 mb 0.00 in0.0 mm 0.00 in0.0 mm 0.04 in1.0 mm
11:05 AM 70.8°F21.6°C 57.2°F14.0°C 62% 2.7 mph W4.3 kmh W 10.3 mph16.6 kmh 29.88 in1011.9 mb 0.00 in0.0 mm 0.00 in0.0 mm 0.04 in1.0 mm
11:00 AM 70.7°F21.5°C 57.1°F13.9°C 62% 3.1 mph WNW5.0 kmh WNW 10.8 mph17.4 kmh 29.88 in1011.9 mb 0.00 in0.0 mm 0.00 in0.0 mm 0.04 in1.0 mm
10:55 AM 69.2°F20.7°C 57.0°F13.9°C 65% 2.2 mph W3.5 kmh W 10.8 mph17.4 kmh 29.88 in1011.9 mb 0.00 in0.0 mm 0.00 in0.0 mm 0.04 in1.0 mm
10:50 AM 68.7°F20.4°C 58.2°F14.6°C 69% 2.2 mph WSW3.5 kmh WSW 6.3 mph10.1 kmh 29.88 in1011.9 mb 0.00 in0.0 mm 0.00 in0.0 mm 0.04 in1.0 mm
10:45 AM 68.0°F20.0°C 56.7°F13.7°C 67% 2.7 mph WSW4.3 kmh WSW 6.3 mph10.1 kmh 29.88 in1011.9 mb 0.00 in0.0 mm 0.00 in0.0 mm 0.04 in1.0 mm
10:40 AM 67.6°F19.8°C 56.7°F13.7°C 68% 3.1 mph WSW5.0 kmh WSW 6.7 mph10.8 kmh 29.88 in1011.9 mb 0.00 in0.0 mm 0.00 in0.0 mm 0.04 in1.0 mm
10:35 AM 67.6°F19.8°C 57.9°F14.4°C 71% 3.1 mph WSW5.0 kmh WSW 6.7 mph10.8 kmh 29.89 in1012.2 mb 0.00 in0.0 mm 0.00 in0.0 mm 0.04 in1.0 mm
10:30 AM 68.0°F20.0°C 58.7°F14.8°C 72% 3.1 mph WSW5.0 kmh WSW 7.6 mph12.2 kmh 29.89 in1012.2 mb 0.00 in0.0 mm 0.00 in0.0 mm 0.04 in1.0 mm
10:25 AM 66.5°F19.2°C 56.8°F13.8°C 71% 4.0 mph SW6.4 kmh SW 11.6 mph18.7 kmh 29.88 in1011.9 mb 0.00 in0.0 mm 0.00 in0.0 mm 0.04 in1.0 mm
10:20 AM 66.3°F19.1°C 57.0°F13.9°C 72% 4.0 mph SW6.4 kmh SW 11.6 mph18.7 kmh 29.89 in1012.2 mb 0.00 in0.0 mm 0.00 in0.0 mm 0.04 in1.0 mm
10:15 AM 66.2°F19.0°C 56.6°F13.7°C 71% 4.0 mph SW6.4 kmh SW 8.5 mph13.7 kmh 29.88 in1011.9 mb 0.00 in0.0 mm 0.00 in0.0 mm 0.04 in1.0 mm
10:10 AM 65.4°F18.6°C 55.8°F13.2°C 71% 4.0 mph WSW6.4 kmh WSW 10.8 mph17.4 kmh 29.88 in1011.9 mb 0.00 in0.0 mm 0.00 in0.0 mm 0.04 in1.0 mm
10:05 AM 65.8°F18.8°C 56.6°F13.7°C 72% 3.1 mph W5.0 kmh W 10.8 mph17.4 kmh 29.88 in1011.9 mb 0.00 in0.0 mm 0.00 in0.0 mm 0.04 in1.0 mm
10:00 AM 67.6°F19.8°C 57.5°F14.2°C 70% 2.7 mph WSW4.3 kmh WSW 9.0 mph14.5 kmh 29.88 in1011.9 mb 0.00 in0.0 mm 0.00 in0.0 mm 0.04 in1.0 mm
09:55 AM 66.5°F19.2°C 58.0°F14.4°C 74% 3.1 mph SW5.0 kmh SW 9.0 mph14.5 kmh 29.88 in1011.9 mb 0.00 in0.0 mm 0.00 in0.0 mm 0.04 in1.0 mm
09:50 AM 66.7°F19.3°C 58.6°F14.8°C 75% 3.6 mph SW5.8 kmh SW 7.6 mph12.2 kmh 29.88 in1011.9 mb 0.00 in0.0 mm 0.00 in0.0 mm 0.04 in1.0 mm
09:45 AM 65.1°F18.4°C 57.4°F14.1°C 76% 4.0 mph SW6.4 kmh SW 7.6 mph12.2 kmh 29.89 in1012.2 mb 0.00 in0.0 mm 0.00 in0.0 mm 0.04 in1.0 mm
09:40 AM 64.9°F18.3°C 58.6°F14.8°C 80% 3.6 mph WSW5.8 kmh WSW 8.1 mph13.0 kmh 29.89 in1012.2 mb 0.00 in0.0 mm 0.00 in0.0 mm 0.04 in1.0 mm
09:35 AM 64.0°F17.8°C 57.4°F14.1°C 79% 3.6 mph WSW5.8 kmh WSW 8.1 mph13.0 kmh 29.89 in1012.2 mb 0.00 in0.0 mm 0.00 in0.0 mm 0.04 in1.0 mm
09:30 AM 63.8°F17.7°C 58.2°F14.6°C 82% 3.6 mph W5.8 kmh W 6.7 mph10.8 kmh 29.89 in1012.2 mb 0.00 in0.0 mm 0.00 in0.0 mm 0.04 in1.0 mm
09:25 AM 64.5°F18.1°C 59.3°F15.2°C 83% 3.1 mph NW5.0 kmh NW 6.7 mph10.8 kmh 29.89 in1012.2 mb 0.00 in0.0 mm 0.00 in0.0 mm 0.04 in1.0 mm
09:20 AM 63.8°F17.7°C 58.9°F14.9°C 84% 2.7 mph NW4.3 kmh NW 6.7 mph10.8 kmh 29.89 in1012.2 mb 0.00 in0.0 mm 0.00 in0.0 mm 0.04 in1.0 mm
09:15 AM 63.6°F17.6°C 59.0°F15.0°C 85% 2.7 mph WNW4.3 kmh WNW 6.7 mph10.8 kmh 29.89 in1012.2 mb 0.00 in0.0 mm 0.00 in0.0 mm 0.04 in1.0 mm
09:10 AM 62.7°F17.1°C 59.1°F15.1°C 88% 2.7 mph WNW4.3 kmh WNW 6.7 mph10.8 kmh 29.89 in1012.2 mb 0.00 in0.0 mm 0.00 in0.0 mm 0.04 in1.0 mm
09:05 AM 62.0°F16.7°C 58.4°F14.7°C 88% 2.2 mph WNW3.5 kmh WNW 6.3 mph10.1 kmh 29.89 in1012.2 mb 0.00 in0.0 mm 0.00 in0.0 mm 0.04 in1.0 mm
09:00 AM 61.5°F16.4°C 58.3°F14.6°C 89% 1.8 mph NW2.9 kmh NW 4.9 mph7.9 kmh 29.89 in1012.2 mb 0.00 in0.0 mm 0.00 in0.0 mm 0.04 in1.0 mm
08:55 AM 61.3°F16.3°C 58.7°F14.8°C 91% 2.2 mph NW3.5 kmh NW 5.4 mph8.7 kmh 29.89 in1012.2 mb 0.01 in0.3 mm 0.00 in0.0 mm 0.04 in1.0 mm
08:50 AM 60.9°F16.1°C 58.3°F14.6°C 91% 2.7 mph NW4.3 kmh NW 5.4 mph8.7 kmh 29.89 in1012.2 mb 0.02 in0.5 mm 0.00 in0.0 mm 0.04 in1.0 mm
08:45 AM 60.9°F16.1°C 58.3°F14.6°C 91% 3.1 mph NW5.0 kmh NW 6.7 mph10.8 kmh 29.89 in1012.2 mb 0.02 in0.5 mm 0.00 in0.0 mm 0.04 in1.0 mm
08:40 AM 60.9°F16.1°C 58.3°F14.6°C 91% 3.1 mph NW5.0 kmh NW 6.7 mph10.8 kmh 29.89 in1012.2 mb 0.02 in0.5 mm 0.00 in0.0 mm 0.04 in1.0 mm
08:35 AM 61.1°F16.2°C 58.8°F14.9°C 92% 2.7 mph NW4.3 kmh NW 5.8 mph9.3 kmh 29.89 in1012.2 mb 0.03 in0.8 mm 0.00 in0.0 mm 0.04 in1.0 mm
08:30 AM 60.9°F16.1°C 58.9°F14.9°C 93% 2.2 mph NW3.5 kmh NW 5.8 mph9.3 kmh 29.89 in1012.2 mb 0.03 in0.8 mm 0.00 in0.0 mm 0.04 in1.0 mm
08:25 AM 60.9°F16.1°C 59.2°F15.1°C 94% 2.2 mph NNW3.5 kmh NNW 4.0 mph6.4 kmh 29.89 in1012.2 mb 0.03 in0.8 mm 0.00 in0.0 mm 0.04 in1.0 mm
08:20 AM 60.6°F15.9°C 58.9°F14.9°C 94% 2.2 mph NNW3.5 kmh NNW 4.9 mph7.9 kmh 29.89 in1012.2 mb 0.03 in0.8 mm 0.00 in0.0 mm 0.04 in1.0 mm
08:15 AM 60.0°F15.6°C 58.6°F14.8°C 95% 2.7 mph NNW4.3 kmh NNW 4.9 mph7.9 kmh 29.89 in1012.2 mb 0.04 in1.0 mm 0.00 in0.0 mm 0.04 in1.0 mm
08:10 AM 59.5°F15.3°C 58.1°F14.5°C 95% 2.7 mph NW4.3 kmh NW 5.4 mph8.7 kmh 29.89 in1012.2 mb 0.04 in1.0 mm 0.00 in0.0 mm 0.04 in1.0 mm
08:05 AM 59.3°F15.2°C 57.9°F14.4°C 95% 2.7 mph NW4.3 kmh NW 7.2 mph11.6 kmh 29.89 in1012.2 mb 0.04 in1.0 mm 0.00 in0.0 mm 0.04 in1.0 mm
08:00 AM 59.1°F15.1°C 57.7°F14.3°C 95% 3.1 mph NW5.0 kmh NW 7.2 mph11.6 kmh 29.89 in1012.2 mb 0.04 in1.0 mm 0.02 in0.5 mm 0.04 in1.0 mm
07:55 AM 59.0°F15.0°C 57.3°F14.1°C 94% 3.1 mph NW5.0 kmh NW 6.3 mph10.1 kmh 29.89 in1012.2 mb 0.02 in0.5 mm 0.00 in0.0 mm 0.02 in0.5 mm
07:50 AM 59.5°F15.3°C 58.1°F14.5°C 95% 3.1 mph NW5.0 kmh NW 8.5 mph13.7 kmh 29.89 in1012.2 mb 0.02 in0.5 mm 0.00 in0.0 mm 0.02 in0.5 mm
07:45 AM 59.5°F15.3°C 57.8°F14.3°C 94% 3.1 mph NW5.0 kmh NW 8.5 mph13.7 kmh 29.89 in1012.2 mb 0.02 in0.5 mm 0.00 in0.0 mm 0.02 in0.5 mm
07:40 AM 59.3°F15.2°C 57.6°F14.2°C 94% 2.7 mph NW4.3 kmh NW 5.4 mph8.7 kmh 29.89 in1012.2 mb 0.02 in0.5 mm 0.12 in3.0 mm 0.02 in0.5 mm
07:35 AM 59.7°F15.4°C 57.7°F14.3°C 93% 2.2 mph NW3.5 kmh NW 10.8 mph17.4 kmh 29.89 in1012.2 mb 0.01 in0.3 mm 0.00 in0.0 mm 0.01 in0.3 mm
07:30 AM 60.0°F15.6°C 58.0°F14.4°C 93% 2.2 mph NW3.5 kmh NW 10.8 mph17.4 kmh 29.89 in1012.2 mb 0.01 in0.3 mm 0.00 in0.0 mm 0.01 in0.3 mm
07:25 AM 60.0°F15.6°C 58.0°F14.4°C 93% 2.7 mph NW4.3 kmh NW 5.8 mph9.3 kmh 29.89 in1012.2 mb 0.01 in0.3 mm 0.00 in0.0 mm 0.01 in0.3 mm
07:20 AM 59.7°F15.4°C 57.7°F14.3°C 93% 2.7 mph WNW4.3 kmh WNW 5.8 mph9.3 kmh 29.89 in1012.2 mb 0.01 in0.3 mm 0.12 in3.0 mm 0.01 in0.3 mm
07:15 AM 59.7°F15.4°C 57.4°F14.1°C 92% 2.2 mph NW3.5 kmh NW 5.8 mph9.3 kmh 29.89 in1012.2 mb 0.00 in0.0 mm 0.00 in0.0 mm 0.00 in0.0 mm
07:10 AM 60.0°F15.6°C 57.7°F14.3°C 92% 1.8 mph WNW2.9 kmh WNW 4.5 mph7.2 kmh 29.89 in1012.2 mb 0.00 in0.0 mm 0.00 in0.0 mm 0.00 in0.0 mm
07:05 AM 59.5°F15.3°C 57.2°F14.0°C 92% 2.2 mph WNW3.5 kmh WNW 4.5 mph7.2 kmh 29.88 in1011.9 mb 0.00 in0.0 mm 0.00 in0.0 mm 0.00 in0.0 mm
07:00 AM 59.5°F15.3°C 57.2°F14.0°C 92% 2.2 mph NW3.5 kmh NW 4.5 mph7.2 kmh 29.88 in1011.9 mb 0.00 in0.0 mm 0.00 in0.0 mm 0.00 in0.0 mm
06:55 AM 59.7°F15.4°C 57.1°F13.9°C 91% 2.2 mph WNW3.5 kmh WNW 4.0 mph6.4 kmh 29.88 in1011.9 mb 0.00 in0.0 mm 0.00 in0.0 mm 0.00 in0.0 mm
06:50 AM 59.7°F15.4°C 57.1°F13.9°C 91% 1.3 mph WNW2.1 kmh WNW 4.0 mph6.4 kmh 29.88 in1011.9 mb 0.00 in0.0 mm 0.00 in0.0 mm 0.00 in0.0 mm
06:45 AM 59.9°F15.5°C 57.6°F14.2°C 92% 0.9 mph WSW1.4 kmh WSW 2.7 mph4.3 kmh 29.88 in1011.9 mb 0.00 in0.0 mm 0.00 in0.0 mm 0.00 in0.0 mm
06:40 AM 59.5°F15.3°C 57.2°F14.0°C 92% 0.9 mph SW1.4 kmh SW 2.7 mph4.3 kmh 29.88 in1011.9 mb 0.00 in0.0 mm 0.00 in0.0 mm 0.00 in0.0 mm
06:35 AM 59.1°F15.1°C 56.5°F13.6°C 91% 0.9 mph WSW1.4 kmh WSW 2.7 mph4.3 kmh 29.88 in1011.9 mb 0.00 in0.0 mm 0.00 in0.0 mm 0.00 in0.0 mm
06:30 AM 59.1°F15.1°C 56.8°F13.8°C 92% 1.3 mph W2.1 kmh W 3.1 mph5.0 kmh 29.88 in1011.9 mb 0.00 in0.0 mm 0.00 in0.0 mm 0.00 in0.0 mm
06:25 AM 59.3°F15.2°C 57.0°F13.9°C 92% 1.8 mph W2.9 kmh W 4.9 mph7.9 kmh 29.88 in1011.9 mb 0.00 in0.0 mm 0.00 in0.0 mm 0.00 in0.0 mm
06:20 AM 59.1°F15.1°C 56.8°F13.8°C 92% 1.8 mph W2.9 kmh W 4.9 mph7.9 kmh 29.87 in1011.5 mb 0.00 in0.0 mm 0.00 in0.0 mm 0.00 in0.0 mm
06:15 AM 59.0°F15.0°C 56.7°F13.7°C 92% 2.2 mph WSW3.5 kmh WSW 5.4 mph8.7 kmh 29.87 in1011.5 mb 0.00 in0.0 mm 0.00 in0.0 mm 0.00 in0.0 mm
06:10 AM 58.6°F14.8°C 56.6°F13.7°C 93% 1.8 mph WSW2.9 kmh WSW 5.4 mph8.7 kmh 29.87 in1011.5 mb 0.00 in0.0 mm 0.00 in0.0 mm 0.00 in0.0 mm
06:05 AM 58.4°F14.7°C 56.4°F13.6°C 93% 1.8 mph WSW2.9 kmh WSW 4.5 mph7.2 kmh 29.87 in1011.5 mb 0.00 in0.0 mm 0.00 in0.0 mm 0.00 in0.0 mm
06:00 AM 58.8°F14.9°C 56.8°F13.8°C 93% 1.8 mph W2.9 kmh W 4.5 mph7.2 kmh 29.87 in1011.5 mb 0.00 in0.0 mm 0.00 in0.0 mm 0.00 in0.0 mm
05:55 AM 58.6°F14.8°C 56.6°F13.7°C 93% 1.8 mph W2.9 kmh W 4.5 mph7.2 kmh 29.87 in1011.5 mb 0.00 in0.0 mm 0.00 in0.0 mm 0.00 in0.0 mm
05:50 AM 58.4°F14.7°C 56.4°F13.6°C 93% 1.8 mph W2.9 kmh W 4.5 mph7.2 kmh 29.87 in1011.5 mb 0.00 in0.0 mm 0.00 in0.0 mm 0.00 in0.0 mm
05:45 AM 58.6°F14.8°C 56.9°F13.8°C 94% 1.8 mph W2.9 kmh W 4.5 mph7.2 kmh 29.87 in1011.5 mb 0.00 in0.0 mm 0.00 in0.0 mm 0.00 in0.0 mm
05:40 AM 58.6°F14.8°C 56.9°F13.8°C 94% 1.8 mph WSW2.9 kmh WSW 4.0 mph6.4 kmh 29.87 in1011.5 mb 0.00 in0.0 mm 0.00 in0.0 mm 0.00 in0.0 mm
05:35 AM 58.6°F14.8°C 56.9°F13.8°C 94% 2.2 mph WSW3.5 kmh WSW 6.7 mph10.8 kmh 29.87 in1011.5 mb 0.00 in0.0 mm 0.00 in0.0 mm 0.00 in0.0 mm
05:30 AM 58.2°F14.6°C 56.5°F13.6°C 94% 1.8 mph WSW2.9 kmh WSW 6.7 mph10.8 kmh 29.87 in1011.5 mb 0.00 in0.0 mm 0.00 in0.0 mm 0.00 in0.0 mm
05:25 AM 58.4°F14.7°C 56.7°F13.7°C 94% 1.8 mph W2.9 kmh W 4.5 mph7.2 kmh 29.86 in1011.2 mb 0.00 in0.0 mm 0.00 in0.0 mm 0.00 in0.0 mm
05:20 AM 58.6°F14.8°C 56.9°F13.8°C 94% 2.2 mph W3.5 kmh W 4.5 mph7.2 kmh 29.86 in1011.2 mb 0.00 in0.0 mm 0.00 in0.0 mm 0.00 in0.0 mm
05:15 AM 58.6°F14.8°C 56.9°F13.8°C 94% 2.2 mph W3.5 kmh W 4.9 mph7.9 kmh 29.86 in1011.2 mb 0.00 in0.0 mm 0.00 in0.0 mm 0.00 in0.0 mm
05:10 AM 58.6°F14.8°C 56.9°F13.8°C 94% 2.2 mph WNW3.5 kmh WNW 4.9 mph7.9 kmh 29.86 in1011.2 mb 0.00 in0.0 mm 0.00 in0.0 mm 0.00 in0.0 mm
05:05 AM 58.8°F14.9°C 57.4°F14.1°C 95% 1.8 mph WNW2.9 kmh WNW 4.0 mph6.4 kmh 29.86 in1011.2 mb 0.00 in0.0 mm 0.00 in0.0 mm 0.00 in0.0 mm
05:00 AM 58.8°F14.9°C 57.4°F14.1°C 95% 2.2 mph W3.5 kmh W 5.4 mph8.7 kmh 29.86 in1011.2 mb 0.00 in0.0 mm 0.00 in0.0 mm 0.00 in0.0 mm
04:55 AM 58.8°F14.9°C 57.4°F14.1°C 95% 2.2 mph W3.5 kmh W 5.4 mph8.7 kmh 29.86 in1011.2 mb 0.00 in0.0 mm 0.00 in0.0 mm 0.00 in0.0 mm
04:50 AM 58.6°F14.8°C 56.9°F13.8°C 94% 2.2 mph W3.5 kmh W 5.4 mph8.7 kmh 29.86 in1011.2 mb 0.00 in0.0 mm 0.00 in0.0 mm 0.00 in0.0 mm
04:45 AM 58.8°F14.9°C 57.1°F13.9°C 94% 2.2 mph WNW3.5 kmh WNW 5.4 mph8.7 kmh 29.86 in1011.2 mb 0.00 in0.0 mm 0.00 in0.0 mm 0.00 in0.0 mm
04:40 AM 58.8°F14.9°C 57.1°F13.9°C 94% 2.7 mph WNW4.3 kmh WNW 7.6 mph12.2 kmh 29.86 in1011.2 mb 0.00 in0.0 mm 0.00 in0.0 mm 0.00 in0.0 mm
04:35 AM 58.8°F14.9°C 57.1°F13.9°C 94% 3.1 mph WNW5.0 kmh WNW 7.6 mph12.2 kmh 29.86 in1011.2 mb 0.00 in0.0 mm 0.00 in0.0 mm 0.00 in0.0 mm
04:30 AM 58.8°F14.9°C 57.1°F13.9°C 94% 2.7 mph NW4.3 kmh NW 6.3 mph10.1 kmh 29.86 in1011.2 mb 0.00 in0.0 mm 0.00 in0.0 mm 0.00 in0.0 mm
04:25 AM 58.8°F14.9°C 57.1°F13.9°C 94% 2.2 mph NW3.5 kmh NW 4.5 mph7.2 kmh 29.86 in1011.2 mb 0.00 in0.0 mm 0.00 in0.0 mm 0.00 in0.0 mm
04:20 AM 59.0°F15.0°C 57.3°F14.1°C 94% 1.8 mph NW2.9 kmh NW 4.5 mph7.2 kmh 29.86 in1011.2 mb 0.00 in0.0 mm 0.00 in0.0 mm 0.00 in0.0 mm
04:15 AM 59.0°F15.0°C 57.3°F14.1°C 94% 1.8 mph NW2.9 kmh NW 4.9 mph7.9 kmh 29.86 in1011.2 mb 0.00 in0.0 mm 0.00 in0.0 mm 0.00 in0.0 mm
04:10 AM 59.0°F15.0°C 57.3°F14.1°C 94% 1.8 mph NW2.9 kmh NW 4.9 mph7.9 kmh 29.86 in1011.2 mb 0.00 in0.0 mm 0.00 in0.0 mm 0.00 in0.0 mm
04:05 AM 59.0°F15.0°C 57.3°F14.1°C 94% 1.8 mph NW2.9 kmh NW 4.0 mph6.4 kmh 29.86 in1011.2 mb 0.00 in0.0 mm 0.00 in0.0 mm 0.00 in0.0 mm
04:00 AM 59.1°F15.1°C 57.4°F14.1°C 94% 1.8 mph NW2.9 kmh NW 3.6 mph5.8 kmh 29.86 in1011.2 mb 0.00 in0.0 mm 0.00 in0.0 mm 0.00 in0.0 mm
03:55 AM 59.0°F15.0°C 57.3°F14.1°C 94% 1.3 mph NW2.1 kmh NW 3.6 mph5.8 kmh 29.86 in1011.2 mb 0.00 in0.0 mm 0.00 in0.0 mm 0.00 in0.0 mm
03:50 AM 59.0°F15.0°C 57.3°F14.1°C 94% 1.8 mph NW2.9 kmh NW 3.1 mph5.0 kmh 29.86 in1011.2 mb 0.00 in0.0 mm 0.00 in0.0 mm 0.00 in0.0 mm
03:45 AM 59.1°F15.1°C 57.4°F14.1°C 94% 1.3 mph NW2.1 kmh NW 3.1 mph5.0 kmh 29.85 in1010.8 mb 0.00 in0.0 mm 0.00 in0.0 mm 0.00 in0.0 mm
03:40 AM 59.0°F15.0°C 57.3°F14.1°C 94% 1.3 mph NW2.1 kmh NW 3.1 mph5.0 kmh 29.85 in1010.8 mb 0.00 in0.0 mm 0.00 in0.0 mm 0.00 in0.0 mm
03:35 AM 59.1°F15.1°C 57.4°F14.1°C 94% 1.3 mph NW2.1 kmh NW 2.7 mph4.3 kmh 29.85 in1010.8 mb 0.00 in0.0 mm 0.00 in0.0 mm 0.00 in0.0 mm
03:30 AM 59.1°F15.1°C 57.4°F14.1°C 94% 1.8 mph NW2.9 kmh NW 4.0 mph6.4 kmh 29.85 in1010.8 mb 0.00 in0.0 mm 0.00 in0.0 mm 0.00 in0.0 mm
03:25 AM 59.1°F15.1°C 57.4°F14.1°C 94% 1.8 mph NW2.9 kmh NW 4.0 mph6.4 kmh 29.85 in1010.8 mb 0.00 in0.0 mm 0.00 in0.0 mm 0.00 in0.0 mm
03:20 AM 59.3°F15.2°C 57.6°F14.2°C 94% 1.3 mph NW2.1 kmh NW 3.1 mph5.0 kmh 29.85 in1010.8 mb 0.00 in0.0 mm 0.00 in0.0 mm 0.00 in0.0 mm
03:15 AM 59.1°F15.1°C 57.4°F14.1°C 94% 1.3 mph NW2.1 kmh NW 2.7 mph4.3 kmh 29.85 in1010.8 mb 0.00 in0.0 mm 0.00 in0.0 mm 0.00 in0.0 mm
03:10 AM 59.1°F15.1°C 57.4°F14.1°C 94% 0.9 mph NNW1.4 kmh NNW 2.2 mph3.5 kmh 29.85 in1010.8 mb 0.00 in0.0 mm 0.00 in0.0 mm 0.00 in0.0 mm
03:05 AM 59.3°F15.2°C 57.6°F14.2°C 94% 0.9 mph NNW1.4 kmh NNW 2.2 mph3.5 kmh 29.85 in1010.8 mb 0.00 in0.0 mm 0.00 in0.0 mm 0.00 in0.0 mm
03:00 AM 59.1°F15.1°C 57.4°F14.1°C 94% 0.9 mph NW1.4 kmh NW 2.7 mph4.3 kmh 29.85 in1010.8 mb 0.00 in0.0 mm 0.00 in0.0 mm 0.00 in0.0 mm
02:55 AM 59.1°F15.1°C 57.4°F14.1°C 94% 1.3 mph NW2.1 kmh NW 4.0 mph6.4 kmh 29.85 in1010.8 mb 0.00 in0.0 mm 0.00 in0.0 mm 0.00 in0.0 mm
02:50 AM 59.3°F15.2°C 57.6°F14.2°C 94% 1.3 mph NW2.1 kmh NW 4.0 mph6.4 kmh 29.85 in1010.8 mb 0.00 in0.0 mm 0.00 in0.0 mm 0.00 in0.0 mm
02:45 AM 59.3°F15.2°C 57.9°F14.4°C 95% 1.3 mph WNW2.1 kmh WNW 2.7 mph4.3 kmh 29.85 in1010.8 mb 0.00 in0.0 mm 0.00 in0.0 mm 0.00 in0.0 mm
02:40 AM 59.3°F15.2°C 57.9°F14.4°C 95% 1.3 mph WNW2.1 kmh WNW 2.7 mph4.3 kmh 29.85 in1010.8 mb 0.00 in0.0 mm 0.00 in0.0 mm 0.00 in0.0 mm
02:35 AM 59.5°F15.3°C 58.1°F14.5°C 95% 0.9 mph NW1.4 kmh NW 2.7 mph4.3 kmh 29.85 in1010.8 mb 0.00 in0.0 mm 0.00 in0.0 mm 0.00 in0.0 mm
02:30 AM 59.7°F15.4°C 58.3°F14.6°C 95% 0.4 mph N0.6 kmh N 1.3 mph2.1 kmh 29.85 in1010.8 mb 0.00 in0.0 mm 0.00 in0.0 mm 0.00 in0.0 mm
02:25 AM 59.7°F15.4°C 58.3°F14.6°C 95% 0.4 mph NE0.6 kmh NE 0.9 mph1.4 kmh 29.85 in1010.8 mb 0.00 in0.0 mm 0.00 in0.0 mm 0.00 in0.0 mm
02:20 AM 59.7°F15.4°C 58.3°F14.6°C 95% 0.4 mph NE0.6 kmh NE 0.9 mph1.4 kmh 29.85 in1010.8 mb 0.00 in0.0 mm 0.00 in0.0 mm 0.00 in0.0 mm
02:15 AM 59.7°F15.4°C 58.3°F14.6°C 95% 0.4 mph NE0.6 kmh NE 0.9 mph1.4 kmh 29.85 in1010.8 mb 0.00 in0.0 mm 0.00 in0.0 mm 0.00 in0.0 mm
02:10 AM 59.3°F15.2°C 57.9°F14.4°C 95% Calm Calm 0.4 mph0.6 kmh 29.85 in1010.8 mb 0.00 in0.0 mm 0.00 in0.0 mm 0.00 in0.0 mm
02:05 AM 59.1°F15.1°C 57.7°F14.3°C 95% Calm Calm 0.4 mph0.6 kmh 29.85 in1010.8 mb 0.00 in0.0 mm 0.00 in0.0 mm 0.00 in0.0 mm
02:00 AM 59.3°F15.2°C 57.9°F14.4°C 95% Calm Calm 0.9 mph1.4 kmh 29.85 in1010.8 mb 0.00 in0.0 mm 0.00 in0.0 mm 0.00 in0.0 mm
01:55 AM 59.7°F15.4°C 58.3°F14.6°C 95% 0.4 mph N0.6 kmh N 0.9 mph1.4 kmh 29.85 in1010.8 mb 0.00 in0.0 mm 0.00 in0.0 mm 0.00 in0.0 mm
01:50 AM 59.5°F15.3°C 58.1°F14.5°C 95% 0.4 mph N0.6 kmh N 0.9 mph1.4 kmh 29.86 in1011.2 mb 0.00 in0.0 mm 0.00 in0.0 mm 0.00 in0.0 mm
01:45 AM 59.5°F15.3°C 58.1°F14.5°C 95% 0.4 mph N0.6 kmh N 0.9 mph1.4 kmh 29.86 in1011.2 mb 0.00 in0.0 mm 0.00 in0.0 mm 0.00 in0.0 mm
01:40 AM 59.5°F15.3°C 58.1°F14.5°C 95% 0.4 mph NNE0.6 kmh NNE 1.3 mph2.1 kmh 29.86 in1011.2 mb 0.00 in0.0 mm 0.00 in0.0 mm 0.00 in0.0 mm
01:35 AM 59.7°F15.4°C 58.3°F14.6°C 95% 0.4 mph NE0.6 kmh NE 1.3 mph2.1 kmh 29.86 in1011.2 mb 0.00 in0.0 mm 0.00 in0.0 mm 0.00 in0.0 mm
01:30 AM 59.5°F15.3°C 58.1°F14.5°C 95% 0.4 mph NNE0.6 kmh NNE 1.8 mph2.9 kmh 29.86 in1011.2 mb 0.00 in0.0 mm 0.00 in0.0 mm 0.00 in0.0 mm
01:25 AM 59.3°F15.2°C 57.6°F14.2°C 94% 0.9 mph NNE1.4 kmh NNE 1.8 mph2.9 kmh 29.86 in1011.2 mb 0.00 in0.0 mm 0.00 in0.0 mm 0.00 in0.0 mm
01:20 AM 59.5°F15.3°C 58.1°F14.5°C 95% 0.9 mph NNE1.4 kmh NNE 1.8 mph2.9 kmh 29.86 in1011.2 mb 0.00 in0.0 mm 0.00 in0.0 mm 0.00 in0.0 mm
01:15 AM 59.5°F15.3°C 58.1°F14.5°C 95% 0.9 mph NE1.4 kmh NE 1.8 mph2.9 kmh 29.86 in1011.2 mb 0.00 in0.0 mm 0.00 in0.0 mm 0.00 in0.0 mm
01:10 AM 59.5°F15.3°C 58.1°F14.5°C 95% 0.9 mph NE1.4 kmh NE 2.7 mph4.3 kmh 29.86 in1011.2 mb 0.00 in0.0 mm 0.00 in0.0 mm 0.00 in0.0 mm
01:05 AM 59.3°F15.2°C 57.6°F14.2°C 94% 1.3 mph NE2.1 kmh NE 2.7 mph4.3 kmh 29.86 in1011.2 mb 0.00 in0.0 mm 0.00 in0.0 mm 0.00 in0.0 mm
01:00 AM 59.1°F15.1°C 57.4°F14.1°C 94% 0.9 mph NE1.4 kmh NE 2.2 mph3.5 kmh 29.86 in1011.2 mb 0.00 in0.0 mm 0.00 in0.0 mm 0.00 in0.0 mm
12:55 AM 59.3°F15.2°C 57.6°F14.2°C 94% 0.9 mph NE1.4 kmh NE 1.8 mph2.9 kmh 29.86 in1011.2 mb 0.00 in0.0 mm 0.00 in0.0 mm 0.00 in0.0 mm
12:50 AM 59.1°F15.1°C 57.4°F14.1°C 94% 1.3 mph NE2.1 kmh NE 2.7 mph4.3 kmh 29.86 in1011.2 mb 0.00 in0.0 mm 0.00 in0.0 mm 0.00 in0.0 mm
12:45 AM 59.1°F15.1°C 57.4°F14.1°C 94% 1.8 mph NNE2.9 kmh NNE 3.6 mph5.8 kmh 29.86 in1011.2 mb 0.00 in0.0 mm 0.00 in0.0 mm 0.00 in0.0 mm
12:40 AM 59.5°F15.3°C 57.8°F14.3°C 94% 1.8 mph NNE2.9 kmh NNE 3.6 mph5.8 kmh 29.87 in1011.5 mb 0.00 in0.0 mm 0.00 in0.0 mm 0.00 in0.0 mm
12:35 AM 59.1°F15.1°C 57.4°F14.1°C 94% 0.9 mph NE1.4 kmh NE 3.1 mph5.0 kmh 29.86 in1011.2 mb 0.00 in0.0 mm 0.00 in0.0 mm 0.00 in0.0 mm
12:30 AM 58.8°F14.9°C 56.8°F13.8°C 93% 0.9 mph NE1.4 kmh NE 2.2 mph3.5 kmh 29.86 in1011.2 mb 0.00 in0.0 mm 0.00 in0.0 mm 0.00 in0.0 mm
12:25 AM 59.3°F15.2°C 57.6°F14.2°C 94% 0.9 mph NE1.4 kmh NE 2.2 mph3.5 kmh 29.86 in1011.2 mb 0.00 in0.0 mm 0.00 in0.0 mm 0.00 in0.0 mm
12:20 AM 59.1°F15.1°C 57.4°F14.1°C 94% 1.3 mph NE2.1 kmh NE 2.2 mph3.5 kmh 29.87 in1011.5 mb 0.00 in0.0 mm 0.00 in0.0 mm 0.00 in0.0 mm
12:15 AM 59.3°F15.2°C 57.6°F14.2°C 94% 1.3 mph NE2.1 kmh NE 2.2 mph3.5 kmh 29.87 in1011.5 mb 0.00 in0.0 mm 0.00 in0.0 mm 0.00 in0.0 mm
12:10 AM 59.3°F15.2°C 57.6°F14.2°C 94% 0.9 mph NE1.4 kmh NE 2.2 mph3.5 kmh 29.87 in1011.5 mb 0.00 in0.0 mm 0.00 in0.0 mm 0.00 in0.0 mm
12:05 AM 59.1°F15.1°C 57.1°F13.9°C 93% 0.9 mph NE1.4 kmh NE 2.7 mph4.3 kmh 29.87 in1011.5 mb 0.00 in0.0 mm 0.00 in0.0 mm 0.00 in0.0 mm
12:00 AM 59.1°F15.1°C 57.4°F14.1°C 94% 1.3 mph NE2.1 kmh NE 2.7 mph4.3 kmh 29.87 in1011.5 mb 0.00 in0.0 mm 0.00 in0.0 mm 0.00 in0.0 mm